createdAt,value
2017-09-21T15:22:37.906Z,4.53
2017-09-21T15:25:07.343Z,4.10
2017-09-21T15:27:48.439Z,4.43
2017-09-21T15:30:18.208Z,5.43
2017-09-21T15:32:47.844Z,4.70
2017-09-21T15:35:17.544Z,4.57
2017-09-21T15:37:46.585Z,4.40
2017-09-21T15:40:24.430Z,4.07
2017-09-21T15:42:54.732Z,4.63
2017-09-21T15:45:24.565Z,4.77
2017-09-21T15:47:53.848Z,4.93
2017-09-21T15:54:12.950Z,4.07
2017-09-21T15:57:01.092Z,3.80
2017-09-21T15:59:28.704Z,3.20
2017-09-21T16:01:56.192Z,3.67
2017-09-21T16:04:23.668Z,3.93
2017-09-21T16:06:51.521Z,3.70
2017-09-21T16:09:18.995Z,4.17
2017-09-21T16:11:46.673Z,4.30
2017-09-21T16:14:14.176Z,5.33
2017-09-21T16:16:41.782Z,4.60
2017-09-21T16:19:09.285Z,4.60
2017-09-21T16:21:36.773Z,4.73
2017-09-21T16:24:04.291Z,4.43
2017-09-21T16:26:32.544Z,4.20
2017-09-21T16:29:00.041Z,4.03
2017-09-21T16:31:27.687Z,4.23
2017-09-21T16:33:55.171Z,3.87
2017-09-21T16:36:22.744Z,4.00
2017-09-21T16:38:50.333Z,5.10
2017-09-21T16:41:18.005Z,4.20
2017-09-21T16:43:45.454Z,5.10
2017-09-21T16:46:12.947Z,5.27
2017-09-21T16:48:40.437Z,4.43
2017-09-21T16:51:07.898Z,4.73
2017-09-21T16:53:35.386Z,4.90
2017-09-21T16:56:02.928Z,4.60
2017-09-21T16:58:30.435Z,4.97
2017-09-21T17:00:57.893Z,4.63
2017-09-21T17:03:26.745Z,4.57
2017-09-21T17:05:54.296Z,5.70
2017-09-21T17:08:21.768Z,4.97
2017-09-21T17:10:49.252Z,5.13
2017-09-21T17:13:16.828Z,4.33
2017-09-21T17:15:44.346Z,4.90
2017-09-21T17:18:11.821Z,7.20
2017-09-21T17:20:40.336Z,10.63
2017-09-21T17:23:07.905Z,7.40
2017-09-21T17:25:36.774Z,5.47
2017-09-21T17:28:04.289Z,6.40
2017-09-21T17:30:31.846Z,6.77
2017-09-21T17:33:01.504Z,6.10
2017-09-21T17:35:30.617Z,6.43
2017-09-21T17:37:58.142Z,16.07
2017-09-21T17:40:25.644Z,41.30
2017-09-21T17:42:53.149Z,15.30
2017-09-21T17:45:21.128Z,15.33
2017-09-21T17:47:52.878Z,7.57
2017-09-21T17:50:20.403Z,10.87
2017-09-21T17:52:47.892Z,13.67
2017-09-21T17:55:15.588Z,11.87
2017-09-21T17:57:43.439Z,8.90
2017-09-21T18:00:10.977Z,7.40
2017-09-21T18:02:38.544Z,7.07
2017-09-21T18:05:06.083Z,7.57
2017-09-21T18:07:33.572Z,7.43
2017-09-21T18:10:01.093Z,8.03
2017-09-21T18:12:28.618Z,9.37
2017-09-21T18:14:56.314Z,11.70
2017-09-21T18:17:23.842Z,9.77
2017-09-21T18:19:51.337Z,8.10
2017-09-21T18:22:18.927Z,7.37
2017-09-21T18:24:46.434Z,7.00
2017-09-21T18:27:14.222Z,6.93
2017-09-21T18:29:41.740Z,6.50
2017-09-21T18:32:09.331Z,7.97
2017-09-21T18:34:37.044Z,6.90
2017-09-21T18:37:04.511Z,7.40
2017-09-21T18:39:32.081Z,7.33
2017-09-21T18:41:59.565Z,7.43
2017-09-21T18:44:27.051Z,6.60
2017-09-21T18:46:54.553Z,7.40
2017-09-21T18:49:22.024Z,8.60
2017-09-21T18:51:49.530Z,7.17
2017-09-21T18:54:17.026Z,8.30
2017-09-21T18:56:44.549Z,8.10
2017-09-21T18:59:12.044Z,7.70
2017-09-21T19:01:39.554Z,7.90
2017-09-21T19:04:07.105Z,9.03
2017-09-21T19:06:34.576Z,9.67
2017-09-21T19:09:02.118Z,9.57
2017-09-21T19:11:29.599Z,8.80
2017-09-21T19:13:57.148Z,10.60
2017-09-21T19:16:24.623Z,12.40
2017-09-21T19:18:52.154Z,14.53
2017-09-21T19:21:19.656Z,15.03
2017-09-21T19:23:47.129Z,14.17
2017-09-21T19:26:14.662Z,15.20
2017-09-21T19:28:42.167Z,11.97
2017-09-21T19:31:09.648Z,11.17
2017-09-21T19:33:37.180Z,11.30
2017-09-21T19:36:04.744Z,10.80
2017-09-21T19:38:32.318Z,9.60
2017-09-21T19:40:59.874Z,10.30
2017-09-21T19:43:27.449Z,8.83
2017-09-21T19:45:55.279Z,9.10
2017-09-21T19:48:22.793Z,9.10
2017-09-21T19:50:50.297Z,8.80
2017-09-21T19:53:17.858Z,8.50
2017-09-21T19:55:45.506Z,8.60
2017-09-21T19:58:13.191Z,9.13
2017-09-21T20:00:40.717Z,9.17
2017-09-21T20:03:08.278Z,8.57
2017-09-21T20:05:35.966Z,9.40
2017-09-21T20:08:03.517Z,9.93
2017-09-21T20:10:31.019Z,9.40
2017-09-21T20:12:58.560Z,9.13
2017-09-21T20:15:26.214Z,9.30
2017-09-21T20:17:53.690Z,9.40
2017-09-21T20:20:21.377Z,9.30
2017-09-21T20:22:48.885Z,9.13
2017-09-21T20:25:16.558Z,8.70
2017-09-21T20:27:44.308Z,9.10
2017-09-21T20:30:15.382Z,8.80
2017-09-21T20:32:43.551Z,8.70
2017-09-21T20:35:11.139Z,9.80
2017-09-21T20:37:41.535Z,9.60
2017-09-21T20:40:11.787Z,9.23
2017-09-21T20:42:39.282Z,9.10
2017-09-21T20:45:06.913Z,9.30
2017-09-21T20:50:09.687Z,9.30
2017-09-21T20:52:37.183Z,10.30
2017-09-21T20:55:04.684Z,10.50
2017-09-21T20:57:32.155Z,10.73
2017-09-21T20:59:59.657Z,10.90
2017-09-21T21:02:27.183Z,10.43
2017-09-21T21:04:55.746Z,11.47
2017-09-21T21:07:23.673Z,11.93
2017-09-21T21:09:51.160Z,11.70
2017-09-21T21:12:18.666Z,10.90
2017-09-21T21:14:46.176Z,11.00
2017-09-21T21:17:13.715Z,11.20
2017-09-21T21:19:41.233Z,11.60
2017-09-21T21:22:08.776Z,11.03
2017-09-21T21:24:36.287Z,11.43
2017-09-21T21:27:03.806Z,11.40
2017-09-21T21:29:31.323Z,11.40
2017-09-21T21:31:58.848Z,11.87
2017-09-21T21:34:26.345Z,11.80
2017-09-21T21:36:53.887Z,11.70
2017-09-21T21:39:21.387Z,12.03
2017-09-21T21:41:48.906Z,11.60
2017-09-21T21:44:16.469Z,11.27
2017-09-21T21:46:44.003Z,11.37
2017-09-21T21:49:11.548Z,11.27
2017-09-21T21:51:40.069Z,10.93
2017-09-21T21:54:07.568Z,12.07
2017-09-21T21:56:35.451Z,12.90
2017-09-21T21:59:02.928Z,12.10
2017-09-21T22:01:30.578Z,12.00
2017-09-21T22:03:58.081Z,11.47
2017-09-21T22:06:26.217Z,12.27
2017-09-21T22:08:53.848Z,11.77
2017-09-21T22:11:21.370Z,11.13
2017-09-21T22:13:48.960Z,12.10
2017-09-21T22:16:16.478Z,12.50
2017-09-21T22:18:44.614Z,11.77
2017-09-21T22:21:12.310Z,12.13
2017-09-21T22:23:39.790Z,11.47
2017-09-21T22:26:07.332Z,11.60
2017-09-21T22:28:34.843Z,11.63
2017-09-21T22:31:02.341Z,11.97
2017-09-21T22:33:29.869Z,12.30
2017-09-21T22:35:57.418Z,11.00
2017-09-21T22:38:25.090Z,12.17
2017-09-21T22:40:52.610Z,11.70
2017-09-21T22:43:20.143Z,11.63
2017-09-21T22:45:47.625Z,11.53
2017-09-21T22:48:15.136Z,12.00
2017-09-21T22:50:42.840Z,11.97
2017-09-21T22:53:10.512Z,11.80
2017-09-21T22:55:38.117Z,12.20
2017-09-21T22:58:05.968Z,12.20
2017-09-21T23:00:33.518Z,12.57
2017-09-21T23:03:01.036Z,12.30
2017-09-21T23:05:28.564Z,11.97
2017-09-21T23:07:56.089Z,12.00
2017-09-21T23:10:23.574Z,11.30
2017-09-21T23:12:51.057Z,11.70
2017-09-21T23:15:18.561Z,11.17
2017-09-21T23:17:46.094Z,11.70
2017-09-21T23:20:13.605Z,12.27
2017-09-21T23:22:41.113Z,12.03
2017-09-21T23:25:08.611Z,12.50
2017-09-21T23:30:44.335Z,11.90
2017-09-21T23:33:11.918Z,12.50
2017-09-21T23:35:39.420Z,11.37
2017-09-21T23:38:06.913Z,11.70
2017-09-21T23:40:34.600Z,11.50
2017-09-21T23:43:02.125Z,11.17
2017-09-21T23:45:29.663Z,11.53
2017-09-21T23:48:00.856Z,10.73
2017-09-21T23:50:30.971Z,11.50
2017-09-21T23:52:58.547Z,11.47
2017-09-21T23:55:26.032Z,12.50
2017-09-21T23:57:53.508Z,12.50
